Time;durP1;ratioP1;P1;durP2;ratioP2;P2;SDS_P1;SDS_P2;PMS_P1;PMS_P2;Temp;Humidity;BMP_temperature;BMP_pressure;BME280_temperature;BME280_humidity;BME280_pressure;Samples;Min_cycle;Max_cycle;Signal;HPM_P1;HPM_P2
2022/03/12 00:01:06;;;;;;;13.52;6.57;;;;;;;;;;6163369;23;20431;-86
2022/03/12 00:03:32;;;;;;;14.05;5.75;;;;;;;;;;6162488;23;20394;-87
2022/03/12 00:05:59;;;;;;;8.00;5.90;;;;;;;;;;6161966;23;20351;-86
2022/03/12 00:08:34;;;;;;;12.45;6.57;;;;;;;;;;6138069;23;20025;-86
2022/03/12 00:11:01;;;;;;;11.77;7.03;;;;;;;;;;6161212;23;20048;-86
2022/03/12 00:13:27;;;;;;;15.00;6.78;;;;;;;;;;6137909;23;20351;-87
2022/03/12 00:15:59;;;;;;;13.13;6.30;;;;;;;;;;6162156;23;20440;-87
2022/03/12 00:18:30;;;;;;;10.32;6.50;;;;;;;;;;6188923;23;20355;-87
2022/03/12 00:20:57;;;;;;;9.07;6.63;;;;;;;;;;6162329;23;20024;-86
2022/03/12 00:23:26;;;;;;;11.65;6.22;;;;;;;;;;6187809;23;20017;-86
2022/03/12 00:25:52;;;;;;;10.48;6.47;;;;;;;;;;6136823;23;20017;-87
2022/03/12 00:28:19;;;;;;;20.88;7.00;;;;;;;;;;6161594;23;20076;-86
2022/03/12 00:30:47;;;;;;;10.85;6.72;;;;;;;;;;6138151;23;20063;-86
2022/03/12 00:33:14;;;;;;;12.15;6.93;;;;;;;;;;6137678;23;20096;-87
2022/03/12 00:35:40;;;;;;;13.98;6.93;;;;;;;;;;6161880;23;20095;-86
2022/03/12 00:38:07;;;;;;;14.27;6.15;;;;;;;;;;6187491;23;20108;-86
2022/03/12 00:40:37;;;;;;;20.48;7.40;;;;;;;;;;6161960;23;20048;-87
2022/03/12 00:43:03;;;;;;;10.45;6.43;;;;;;;;;;6138062;23;20016;-87
2022/03/12 00:45:29;;;;;;;9.07;5.75;;;;;;;;;;6138743;23;20455;-86
2022/03/12 00:47:55;;;;;;;11.48;6.25;;;;;;;;;;6191547;23;20495;-87
2022/03/12 00:50:21;;;;;;;10.30;5.40;;;;;;;;;;6138918;23;20075;-86
2022/03/12 00:52:48;;;;;;;9.15;6.90;;;;;;;;;;6163721;23;20024;-87
2022/03/12 00:55:14;;;;;;;11.32;6.30;;;;;;;;;;6165121;23;20019;-92
2022/03/12 00:57:40;;;;;;;13.23;6.63;;;;;;;;;;6163993;23;20073;-89
2022/03/12 01:00:12;;;;;;;12.05;7.15;;;;;;;;;;6140493;23;20427;-88
2022/03/12 01:02:38;;;;;;;9.52;6.55;;;;;;;;;;6190031;23;20020;-91
2022/03/12 01:05:04;;;;;;;9.55;5.88;;;;;;;;;;6163498;23;20020;-87
2022/03/12 01:07:30;;;;;;;11.52;5.82;;;;;;;;;;6189649;23;20354;-88
2022/03/12 01:09:59;;;;;;;9.52;6.20;;;;;;;;;;6164237;23;20020;-90
2022/03/12 01:12:25;;;;;;;23.27;7.13;;;;;;;;;;6163606;23;20028;-90
2022/03/12 01:14:52;;;;;;;9.57;5.32;;;;;;;;;;6190029;23;20021;-88
2022/03/12 01:17:18;;;;;;;9.90;6.20;;;;;;;;;;6139332;23;20021;-87
2022/03/12 01:19:44;;;;;;;9.45;5.78;;;;;;;;;;6163132;23;20012;-88
2022/03/12 01:22:18;;;;;;;14.68;6.50;;;;;;;;;;6163580;23;20100;-90
2022/03/12 01:24:44;;;;;;;11.73;7.75;;;;;;;;;;6163820;23;20087;-89
2022/03/12 01:27:10;;;;;;;9.75;6.38;;;;;;;;;;6189440;23;20088;-88
2022/03/12 01:29:36;;;;;;;11.27;6.55;;;;;;;;;;6163503;23;20017;-88
2022/03/12 01:32:03;;;;;;;8.63;5.85;;;;;;;;;;6161451;23;20446;-86
2022/03/12 01:34:29;;;;;;;8.48;6.15;;;;;;;;;;6136424;23;20328;-87
2022/03/12 01:36:55;;;;;;;10.32;6.13;;;;;;;;;;6161008;23;20025;-86
2022/03/12 01:39:22;;;;;;;8.98;6.68;;;;;;;;;;6189095;23;20394;-86
2022/03/12 01:41:48;;;;;;;8.77;6.95;;;;;;;;;;6163015;23;20025;-86
2022/03/12 01:44:14;;;;;;;11.38;6.43;;;;;;;;;;6162605;23;20017;-87
2022/03/12 01:46:45;;;;;;;9.43;6.53;;;;;;;;;;6163311;23;20017;-86
2022/03/12 01:49:12;;;;;;;18.17;7.25;;;;;;;;;;6188384;23;20009;-86
2022/03/12 01:51:39;;;;;;;9.02;5.72;;;;;;;;;;6161929;23;20017;-86
2022/03/12 01:54:05;;;;;;;10.13;6.43;;;;;;;;;;6188102;23;20163;-86
2022/03/12 01:56:31;;;;;;;13.00;5.80;;;;;;;;;;6188207;23;20574;-85
2022/03/12 01:58:59;;;;;;;9.80;6.63;;;;;;;;;;6161758;23;20023;-86
2022/03/12 02:01:27;;;;;;;8.93;6.10;;;;;;;;;;6188070;23;20339;-85
2022/03/12 02:03:54;;;;;;;9.88;6.40;;;;;;;;;;6187793;23;20017;-85
2022/03/12 02:06:21;;;;;;;12.43;6.93;;;;;;;;;;6162055;23;20021;-85
2022/03/12 02:08:49;;;;;;;9.57;5.95;;;;;;;;;;6136687;23;20455;-86
2022/03/12 02:11:27;;;;;;;7.43;5.55;;;;;;;;;;6187368;23;20039;-86
2022/03/12 02:14:07;;;;;;;10.18;5.43;;;;;;;;;;6187679;23;20021;-85
2022/03/12 02:16:34;;;;;;;7.72;6.07;;;;;;;;;;6137791;23;20019;-86
2022/03/12 02:19:00;;;;;;;8.10;5.85;;;;;;;;;;6161570;23;20440;-86
2022/03/12 02:21:40;;;;;;;8.23;5.60;;;;;;;;;;6188042;23;20013;-86
2022/03/12 02:24:11;;;;;;;10.23;5.88;;;;;;;;;;6160805;23;20021;-86
2022/03/12 02:26:38;;;;;;;9.00;6.53;;;;;;;;;;6187590;23;20013;-86
2022/03/12 02:29:09;;;;;;;11.18;6.07;;;;;;;;;;6161697;23;20024;-86
2022/03/12 02:31:36;;;;;;;9.20;6.65;;;;;;;;;;6187352;23;20443;-86
2022/03/12 02:34:06;;;;;;;12.68;7.03;;;;;;;;;;6188298;23;20452;-86
2022/03/12 02:36:32;;;;;;;11.57;5.57;;;;;;;;;;6163103;23;20021;-86
2022/03/12 02:38:59;;;;;;;9.30;6.05;;;;;;;;;;6163183;23;20025;-86
2022/03/12 02:41:25;;;;;;;14.75;6.38;;;;;;;;;;6163144;23;20096;-86
2022/03/12 02:43:51;;;;;;;9.00;6.35;;;;;;;;;;6163212;23;20017;-85
2022/03/12 02:46:18;;;;;;;8.20;6.00;;;;;;;;;;6189483;23;20017;-86
2022/03/12 02:48:52;;;;;;;10.50;6.10;;;;;;;;;;6189737;23;20071;-86
2022/03/12 02:51:20;;;;;;;9.65;6.43;;;;;;;;;;6139588;23;20324;-86
2022/03/12 02:53:46;;;;;;;11.18;6.40;;;;;;;;;;6190575;23;20025;-86
2022/03/12 02:56:13;;;;;;;9.55;5.93;;;;;;;;;;6163230;23;20092;-86
2022/03/12 02:58:39;;;;;;;13.73;6.30;;;;;;;;;;6189395;23;20507;-87
2022/03/12 03:01:05;;;;;;;11.63;6.63;;;;;;;;;;6190290;23;20028;-86
2022/03/12 03:03:34;;;;;;;10.07;5.80;;;;;;;;;;6163958;23;20021;-86
2022/03/12 03:06:00;;;;;;;9.43;6.10;;;;;;;;;;6139339;23;20013;-87
2022/03/12 03:08:28;;;;;;;13.52;6.22;;;;;;;;;;6189465;23;20031;-86
2022/03/12 03:10:59;;;;;;;7.78;6.35;;;;;;;;;;6190434;23;20017;-86
2022/03/12 03:13:28;;;;;;;10.18;6.40;;;;;;;;;;6163850;23;20079;-86
2022/03/12 03:15:59;;;;;;;13.23;6.38;;;;;;;;;;6163603;23;20017;-86
2022/03/12 03:18:28;;;;;;;9.05;5.88;;;;;;;;;;6163637;23;20514;-86
2022/03/12 03:20:54;;;;;;;8.77;6.53;;;;;;;;;;6139053;23;20021;-86
2022/03/12 03:23:22;;;;;;;8.63;6.55;;;;;;;;;;6189951;23;20012;-86
2022/03/12 03:25:48;;;;;;;8.73;5.47;;;;;;;;;;6140126;23;20411;-87
2022/03/12 03:28:14;;;;;;;12.60;6.65;;;;;;;;;;6163162;23;20017;-86
2022/03/12 03:30:41;;;;;;;7.95;6.38;;;;;;;;;;6189029;23;20013;-87
2022/03/12 03:33:09;;;;;;;9.60;5.93;;;;;;;;;;6188515;23;20021;-87
2022/03/12 03:35:36;;;;;;;11.80;6.70;;;;;;;;;;6137559;23;20028;-86
2022/03/12 03:38:02;;;;;;;10.77;6.05;;;;;;;;;;6162678;23;20021;-88
2022/03/12 03:40:28;;;;;;;8.52;6.45;;;;;;;;;;6138242;23;20320;-87
2022/03/12 03:42:54;;;;;;;10.38;7.15;;;;;;;;;;6162918;23;20009;-87
2022/03/12 03:45:22;;;;;;;10.63;6.32;;;;;;;;;;6137883;23;20351;-87
2022/03/12 03:47:49;;;;;;;8.60;6.47;;;;;;;;;;6163314;23;20013;-87
2022/03/12 03:50:15;;;;;;;9.45;6.30;;;;;;;;;;6189833;23;20017;-87
2022/03/12 03:52:42;;;;;;;11.50;6.63;;;;;;;;;;6162309;23;20013;-87
2022/03/12 03:55:08;;;;;;;8.18;6.18;;;;;;;;;;6188961;23;20374;-87
2022/03/12 03:57:34;;;;;;;11.52;6.30;;;;;;;;;;6162127;23;20021;-87
2022/03/12 04:00:00;;;;;;;9.13;6.00;;;;;;;;;;6137655;23;20032;-88
2022/03/12 04:02:26;;;;;;;7.75;6.07;;;;;;;;;;6162288;23;20017;-87
2022/03/12 04:04:53;;;;;;;9.85;6.28;;;;;;;;;;6162077;23;20024;-88
2022/03/12 04:07:19;;;;;;;9.52;6.28;;;;;;;;;;6188271;23;20017;-87
2022/03/12 04:09:45;;;;;;;9.65;5.90;;;;;;;;;;6162752;23;20103;-88
2022/03/12 04:12:11;;;;;;;12.25;6.70;;;;;;;;;;6161933;23;20024;-86
2022/03/12 04:14:38;;;;;;;8.73;6.10;;;;;;;;;;6137470;23;20017;-86
2022/03/12 04:17:05;;;;;;;11.10;6.47;;;;;;;;;;6137170;23;20459;-87
2022/03/12 04:19:33;;;;;;;7.82;5.80;;;;;;;;;;6188810;23;20064;-88
2022/03/12 04:21:59;;;;;;;8.20;5.97;;;;;;;;;;6137984;23;20501;-87
2022/03/12 04:24:25;;;;;;;9.10;6.68;;;;;;;;;;6138637;23;20328;-88
2022/03/12 04:26:52;;;;;;;10.00;6.65;;;;;;;;;;6189128;23;20017;-88
2022/03/12 04:29:18;;;;;;;11.40;6.82;;;;;;;;;;6163717;23;20021;-86
2022/03/12 04:31:47;;;;;;;9.68;6.68;;;;;;;;;;6189396;23;20017;-87
2022/03/12 04:34:14;;;;;;;15.10;6.38;;;;;;;;;;6162912;23;20316;-88
2022/03/12 04:36:44;;;;;;;12.48;7.78;;;;;;;;;;6156228;23;20033;-87
2022/03/12 04:39:11;;;;;;;9.98;6.82;;;;;;;;;;6108413;23;20126;-86
2022/03/12 04:41:39;;;;;;;7.32;6.45;;;;;;;;;;6133769;23;20013;-86
2022/03/12 04:44:06;;;;;;;10.77;6.05;;;;;;;;;;6108497;23;20022;-86
2022/03/12 04:46:34;;;;;;;8.75;6.40;;;;;;;;;;6131914;23;20009;-86
2022/03/12 04:49:00;;;;;;;10.90;7.13;;;;;;;;;;6158052;23;20027;-86
2022/03/12 04:51:26;;;;;;;10.00;6.40;;;;;;;;;;6107695;23;20025;-86
2022/03/12 04:53:56;;;;;;;9.50;6.53;;;;;;;;;;6131302;23;20399;-86
2022/03/12 04:56:26;;;;;;;11.23;6.30;;;;;;;;;;6158114;23;20072;-86
2022/03/12 04:58:53;;;;;;;8.65;5.80;;;;;;;;;;6108915;23;20013;-86
2022/03/12 05:01:20;;;;;;;10.25;6.70;;;;;;;;;;6158444;23;20017;-86
2022/03/12 05:03:47;;;;;;;8.85;6.10;;;;;;;;;;6131895;23;20354;-88
2022/03/12 05:06:13;;;;;;;13.15;6.70;;;;;;;;;;6108092;23;20100;-86
2022/03/12 05:08:40;;;;;;;15.30;7.70;;;;;;;;;;6158908;23;20017;-86
2022/03/12 05:11:06;;;;;;;8.90;6.68;;;;;;;;;;6132637;23;20085;-87
2022/03/12 05:13:32;;;;;;;13.30;8.63;;;;;;;;;;6106977;23;20021;-86
2022/03/12 05:16:01;;;;;;;15.05;7.63;;;;;;;;;;6130787;23;20021;-86
2022/03/12 05:18:28;;;;;;;12.52;7.05;;;;;;;;;;6107112;23;20025;-86
2022/03/12 05:20:55;;;;;;;12.45;7.25;;;;;;;;;;6131359;23;20402;-86
2022/03/12 05:23:22;;;;;;;10.52;6.38;;;;;;;;;;6157599;23;20026;-87
2022/03/12 05:26:08;;;;;;;12.57;6.72;;;;;;;;;;6131132;23;20021;-87
2022/03/12 05:28:35;;;;;;;11.23;7.05;;;;;;;;;;6132029;23;20092;-86
2022/03/12 05:31:04;;;;;;;12.63;6.47;;;;;;;;;;6108758;23;20071;-85
2022/03/12 05:33:31;;;;;;;13.40;7.78;;;;;;;;;;6106450;23;20517;-86
2022/03/12 05:35:59;;;;;;;11.20;6.57;;;;;;;;;;6131331;23;20021;-86
2022/03/12 05:38:31;;;;;;;13.52;7.72;;;;;;;;;;6157576;23;20522;-86
2022/03/12 05:40:58;;;;;;;12.23;6.10;;;;;;;;;;6160966;23;20088;-86
2022/03/12 05:43:26;;;;;;;10.68;6.38;;;;;;;;;;6161541;23;20019;-87
2022/03/12 05:45:52;;;;;;;12.02;7.53;;;;;;;;;;6135865;23;20025;-87
2022/03/12 05:48:19;;;;;;;12.85;7.10;;;;;;;;;;6135944;23;20051;-86
2022/03/12 05:50:49;;;;;;;10.07;7.22;;;;;;;;;;6137812;23;20052;-88
2022/03/12 05:53:19;;;;;;;9.75;6.80;;;;;;;;;;6187727;23;20021;-86
2022/03/12 05:55:51;;;;;;;9.93;6.63;;;;;;;;;;6137088;23;20392;-87
2022/03/12 05:58:18;;;;;;;8.20;5.90;;;;;;;;;;6160599;23;20059;-87
2022/03/12 06:00:44;;;;;;;9.23;6.97;;;;;;;;;;6137619;23;20087;-87
2022/03/12 06:03:10;;;;;;;9.68;7.32;;;;;;;;;;6162059;23;20028;-86
2022/03/12 06:05:40;;;;;;;10.20;6.72;;;;;;;;;;6161207;23;20088;-87
2022/03/12 06:08:13;;;;;;;12.45;7.65;;;;;;;;;;6186506;23;20021;-86
2022/03/12 06:10:44;;;;;;;12.65;6.97;;;;;;;;;;6188791;23;20017;-87
2022/03/12 06:13:11;;;;;;;11.18;6.97;;;;;;;;;;6138149;23;20075;-86
2022/03/12 06:15:39;;;;;;;11.95;7.10;;;;;;;;;;6189512;23;20017;-86
2022/03/12 06:18:08;;;;;;;11.32;8.02;;;;;;;;;;6162734;23;20021;-86
2022/03/12 06:20:42;;;;;;;12.07;7.32;;;;;;;;;;6189153;23;20017;-85
2022/03/12 06:23:11;;;;;;;10.35;6.85;;;;;;;;;;6138508;23;20017;-86
2022/03/12 06:25:37;;;;;;;8.63;6.20;;;;;;;;;;6163331;23;20053;-88
2022/03/12 06:28:03;;;;;;;11.77;6.82;;;;;;;;;;6138642;23;20096;-85
2022/03/12 06:30:42;;;;;;;;;;;;;;;;;;;;;
2022/03/12 06:36:12;;;;;;;11.13;7.53;;;;;;;;;;6042084;23;20074;-88
2022/03/12 06:38:39;;;;;;;9.27;6.03;;;;;;;;;;6044946;23;20042;-88
2022/03/12 06:41:05;;;;;;;11.98;8.00;;;;;;;;;;6021194;23;20034;-88
2022/03/12 06:43:33;;;;;;;12.98;6.78;;;;;;;;;;6021980;23;20054;-88
2022/03/12 06:46:01;;;;;;;11.27;6.50;;;;;;;;;;6020808;23;20118;-88
2022/03/12 06:48:28;;;;;;;14.85;6.72;;;;;;;;;;6021966;23;20563;-91
2022/03/12 06:50:55;;;;;;;9.43;6.25;;;;;;;;;;6022585;23;20465;-88
2022/03/12 06:53:24;;;;;;;13.50;6.45;;;;;;;;;;6022714;23;20023;-92
2022/03/12 06:55:51;;;;;;;20.85;6.65;;;;;;;;;;6022991;23;20018;-92
2022/03/12 06:58:18;;;;;;;8.23;5.75;;;;;;;;;;6022239;23;20070;-88
2022/03/12 07:00:44;;;;;;;9.18;6.35;;;;;;;;;;6021658;23;20093;-87
2022/03/12 07:03:10;;;;;;;8.55;5.80;;;;;;;;;;6021977;23;20102;-87
2022/03/12 07:05:37;;;;;;;10.60;6.30;;;;;;;;;;6021379;23;20051;-88
2022/03/12 07:08:06;;;;;;;13.43;7.05;;;;;;;;;;6046119;23;20049;-88
2022/03/12 07:10:32;;;;;;;13.32;6.45;;;;;;;;;;6022728;23;20019;-90
2022/03/12 07:12:59;;;;;;;9.13;6.38;;;;;;;;;;6085157;23;20051;-88
2022/03/12 07:15:25;;;;;;;11.27;6.13;;;;;;;;;;6138023;23;20025;-88
2022/03/12 07:17:52;;;;;;;11.35;6.63;;;;;;;;;;6163270;23;20092;-88
2022/03/12 07:20:19;;;;;;;11.98;6.63;;;;;;;;;;6137815;23;20031;-88
2022/03/12 07:22:46;;;;;;;10.90;6.53;;;;;;;;;;6138462;23;20451;-88
2022/03/12 07:25:12;;;;;;;9.48;6.13;;;;;;;;;;6138390;23;20009;-87
2022/03/12 07:27:39;;;;;;;9.90;7.03;;;;;;;;;;6138459;23;20025;-87
2022/03/12 07:30:07;;;;;;;9.00;5.88;;;;;;;;;;6137582;23;20358;-87
2022/03/12 07:32:35;;;;;;;16.38;7.25;;;;;;;;;;6139653;23;20027;-88
2022/03/12 07:35:02;;;;;;;9.40;5.97;;;;;;;;;;6163417;23;20017;-87
2022/03/12 07:37:28;;;;;;;10.90;6.88;;;;;;;;;;6147279;23;20021;-87
2022/03/12 07:39:55;;;;;;;10.02;6.80;;;;;;;;;;6108428;23;20455;-87
2022/03/12 07:42:21;;;;;;;8.95;5.97;;;;;;;;;;6159889;23;20013;-87
2022/03/12 07:44:49;;;;;;;11.30;6.95;;;;;;;;;;6133630;23;20329;-87
2022/03/12 07:47:15;;;;;;;10.25;6.57;;;;;;;;;;6107858;23;20028;-87
2022/03/12 07:49:41;;;;;;;18.02;7.88;;;;;;;;;;6107962;23;20064;-87
2022/03/12 07:52:08;;;;;;;10.02;6.82;;;;;;;;;;6132581;23;20536;-87
2022/03/12 07:54:34;;;;;;;7.97;6.25;;;;;;;;;;6107642;23;20017;-88
2022/03/12 07:57:01;;;;;;;12.23;6.60;;;;;;;;;;6108276;23;20013;-87
2022/03/12 07:59:27;;;;;;;16.10;7.68;;;;;;;;;;6108483;23;20471;-89
2022/03/12 08:01:54;;;;;;;11.57;7.07;;;;;;;;;;6108657;23;20014;-87
2022/03/12 08:04:20;;;;;;;14.18;7.90;;;;;;;;;;6108253;23;20033;-87
2022/03/12 08:06:48;;;;;;;14.70;7.07;;;;;;;;;;6158648;23;20047;-87
2022/03/12 08:09:14;;;;;;;13.20;7.30;;;;;;;;;;6108161;23;20107;-87
2022/03/12 08:11:40;;;;;;;11.15;8.05;;;;;;;;;;6107946;23;20049;-87
2022/03/12 08:14:15;;;;;;;13.23;7.20;;;;;;;;;;6107855;23;20028;-87
2022/03/12 08:16:41;;;;;;;13.57;8.18;;;;;;;;;;6131702;23;20018;-86
2022/03/12 08:19:08;;;;;;;9.40;6.95;;;;;;;;;;6106692;23;20497;-87
2022/03/12 08:21:35;;;;;;;13.68;7.05;;;;;;;;;;6107343;23;20343;-86
2022/03/12 08:24:02;;;;;;;9.38;6.80;;;;;;;;;;6107460;23;20049;-86
2022/03/12 08:26:29;;;;;;;18.40;9.25;;;;;;;;;;6133423;23;20458;-86
2022/03/12 08:28:55;;;;;;;12.50;6.78;;;;;;;;;;6133012;23;20060;-86
2022/03/12 08:31:21;;;;;;;10.80;7.68;;;;;;;;;;6132739;23;20021;-86
2022/03/12 08:33:47;;;;;;;12.05;8.23;;;;;;;;;;6132135;23;20077;-87
2022/03/12 08:36:14;;;;;;;14.95;8.40;;;;;;;;;;6108035;23;20017;-87
2022/03/12 08:38:40;;;;;;;14.93;7.60;;;;;;;;;;6108069;23;20021;-87
2022/03/12 08:41:07;;;;;;;13.18;7.93;;;;;;;;;;6132297;23;20347;-87
2022/03/12 08:43:35;;;;;;;12.75;7.93;;;;;;;;;;6133258;23;20076;-87
2022/03/12 08:46:01;;;;;;;14.60;7.72;;;;;;;;;;6107676;23;20048;-87
2022/03/12 08:48:28;;;;;;;13.32;8.15;;;;;;;;;;6131069;23;20451;-87
2022/03/12 08:50:54;;;;;;;12.90;7.72;;;;;;;;;;6107616;23;20013;-87
2022/03/12 08:53:21;;;;;;;16.27;8.32;;;;;;;;;;6131646;23;20108;-87
2022/03/12 08:55:47;;;;;;;11.07;6.97;;;;;;;;;;6132343;23;20092;-88
2022/03/12 08:58:13;;;;;;;14.38;7.75;;;;;;;;;;6106767;23;20064;-87
2022/03/12 09:00:39;;;;;;;16.20;7.93;;;;;;;;;;6106291;23;20507;-87
2022/03/12 09:03:07;;;;;;;12.98;7.85;;;;;;;;;;6106506;23;20108;-87
2022/03/12 09:05:33;;;;;;;15.20;7.93;;;;;;;;;;6106374;23;20013;-87
2022/03/12 09:07:59;;;;;;;15.13;8.57;;;;;;;;;;6130871;23;20474;-87
2022/03/12 09:10:25;;;;;;;12.68;8.52;;;;;;;;;;6131055;23;20021;-87
2022/03/12 09:12:51;;;;;;;16.52;8.00;;;;;;;;;;6106638;23;20391;-87
2022/03/12 09:15:20;;;;;;;15.27;8.32;;;;;;;;;;6105851;23;20018;-87
2022/03/12 09:17:46;;;;;;;14.13;8.02;;;;;;;;;;6106156;23;20017;-87
2022/03/12 09:20:13;;;;;;;10.85;8.00;;;;;;;;;;6131386;23;20017;-87
2022/03/12 09:22:40;;;;;;;11.48;7.05;;;;;;;;;;6106092;23;20320;-87
2022/03/12 09:25:08;;;;;;;12.40;7.22;;;;;;;;;;6105814;23;20367;-87
2022/03/12 09:27:35;;;;;;;11.93;8.50;;;;;;;;;;6106112;23;20328;-87
2022/03/12 09:30:01;;;;;;;12.60;7.35;;;;;;;;;;6106305;23;20018;-87
2022/03/12 09:32:27;;;;;;;13.48;8.98;;;;;;;;;;6106124;23;20018;-87
2022/03/12 09:34:54;;;;;;;11.55;7.22;;;;;;;;;;6106205;23;20022;-87
2022/03/12 09:37:20;;;;;;;13.27;7.88;;;;;;;;;;6130607;23;20014;-86
2022/03/12 09:39:46;;;;;;;14.07;7.65;;;;;;;;;;6107041;23;20026;-87
2022/03/12 09:42:12;;;;;;;11.80;7.32;;;;;;;;;;6106327;23;20020;-86
2022/03/12 09:44:42;;;;;;;13.95;8.20;;;;;;;;;;6155616;23;20017;-87
2022/03/12 09:47:14;;;;;;;12.48;8.52;;;;;;;;;;6182175;23;20029;-86
2022/03/12 09:49:40;;;;;;;15.10;8.02;;;;;;;;;;6207694;23;20027;-87
2022/03/12 09:52:08;;;;;;;11.05;7.78;;;;;;;;;;6211242;23;20005;-87
2022/03/12 09:54:34;;;;;;;13.07;8.20;;;;;;;;;;6210607;23;20093;-87
2022/03/12 09:57:01;;;;;;;12.40;7.70;;;;;;;;;;6210138;23;20024;-87
2022/03/12 09:59:27;;;;;;;13.18;7.40;;;;;;;;;;6211174;23;20017;-87
2022/03/12 10:01:55;;;;;;;11.65;7.75;;;;;;;;;;6207285;23;20020;-88
2022/03/12 10:04:21;;;;;;;11.18;7.78;;;;;;;;;;6205570;23;20051;-87
2022/03/12 10:06:47;;;;;;;13.02;7.10;;;;;;;;;;6231317;23;20039;-88
2022/03/12 10:09:14;;;;;;;10.95;7.57;;;;;;;;;;6207739;23;20044;-92
2022/03/12 10:11:43;;;;;;;13.50;8.57;;;;;;;;;;6199485;23;20024;-94
2022/03/12 10:14:09;;;;;;;11.57;8.18;;;;;;;;;;6192515;23;20078;-92
2022/03/12 10:16:35;;;;;;;11.80;8.13;;;;;;;;;;6192104;23;20020;-88
2022/03/12 10:19:02;;;;;;;10.93;7.70;;;;;;;;;;6218075;23;20052;-87
2022/03/12 10:21:30;;;;;;;13.40;7.68;;;;;;;;;;6192324;23;20068;-89
2022/03/12 10:23:56;;;;;;;10.75;7.35;;;;;;;;;;6194254;23;20051;-88
2022/03/12 10:26:22;;;;;;;13.95;7.22;;;;;;;;;;6193604;23;20067;-96
2022/03/12 10:28:49;;;;;;;10.00;7.40;;;;;;;;;;6218550;23;20319;-91
2022/03/12 10:31:18;;;;;;;13.30;8.23;;;;;;;;;;6218890;23;20009;-87
2022/03/12 10:33:44;;;;;;;10.98;7.38;;;;;;;;;;6219987;23;20021;-96
2022/03/12 10:36:12;;;;;;;10.98;7.25;;;;;;;;;;6173401;23;20043;-95
2022/03/12 10:38:39;;;;;;;10.63;7.38;;;;;;;;;;6198028;23;20047;-91
2022/03/12 10:41:06;;;;;;;10.52;7.05;;;;;;;;;;6224725;23;20016;-87
2022/03/12 10:43:43;;;;;;;16.60;7.47;;;;;;;;;;6198284;23;20012;-88
2022/03/12 10:46:10;;;;;;;11.35;7.55;;;;;;;;;;6224414;23;20043;-91
2022/03/12 10:48:39;;;;;;;10.20;6.80;;;;;;;;;;6198159;23;20016;-88
2022/03/12 10:51:05;;;;;;;10.48;6.50;;;;;;;;;;6199682;23;20021;-90
2022/03/12 10:53:32;;;;;;;10.98;6.47;;;;;;;;;;6224219;23;20021;-87
2022/03/12 10:55:58;;;;;;;11.77;7.25;;;;;;;;;;6228758;23;20027;-90
2022/03/12 10:58:26;;;;;;;8.52;6.35;;;;;;;;;;6226544;23;20051;-91
2022/03/12 11:00:56;;;;;;;10.25;6.78;;;;;;;;;;6200983;23;20012;-90
2022/03/12 11:03:23;;;;;;;9.73;6.57;;;;;;;;;;6199563;23;20017;-92
2022/03/12 11:05:51;;;;;;;9.25;6.63;;;;;;;;;;6199962;23;20043;-90
2022/03/12 11:08:18;;;;;;;8.10;6.57;;;;;;;;;;6225774;23;20016;-94
2022/03/12 11:10:51;;;;;;;8.80;6.68;;;;;;;;;;6224836;23;20071;-87
2022/03/12 11:13:29;;;;;;;11.53;6.63;;;;;;;;;;6192988;23;20523;-86
2022/03/12 11:16:07;;;;;;;15.50;6.28;;;;;;;;;;6193154;23;20247;-87
2022/03/12 11:18:34;;;;;;;10.05;5.72;;;;;;;;;;6218166;23;20016;-86
2022/03/12 11:21:00;;;;;;;6.75;5.55;;;;;;;;;;6218114;23;20517;-86
2022/03/12 11:23:29;;;;;;;8.05;6.07;;;;;;;;;;6217576;23;20017;-86
2022/03/12 11:25:57;;;;;;;13.30;7.45;;;;;;;;;;6193583;23;20013;-88
2022/03/12 11:28:24;;;;;;;9.82;5.47;;;;;;;;;;6192790;23;20025;-86
2022/03/12 11:30:51;;;;;;;6.90;5.25;;;;;;;;;;6218612;23;20028;-86
2022/03/12 11:33:18;;;;;;;10.82;6.35;;;;;;;;;;6217928;23;20446;-86
2022/03/12 11:35:45;;;;;;;9.50;5.93;;;;;;;;;;6217709;23;20013;-87
2022/03/12 11:38:18;;;;;;;10.65;5.80;;;;;;;;;;6218802;23;20016;-86
2022/03/12 11:40:46;;;;;;;10.60;5.00;;;;;;;;;;6217906;23;20426;-86
2022/03/12 11:43:24;;;;;;;6.68;5.65;;;;;;;;;;6191211;23;20027;-87
2022/03/12 11:45:55;;;;;;;10.20;5.80;;;;;;;;;;6218760;23;20040;-86
2022/03/12 11:48:23;;;;;;;8.10;6.15;;;;;;;;;;6218034;23;20032;-87
2022/03/12 11:50:49;;;;;;;8.68;5.85;;;;;;;;;;6218952;23;20017;-86
2022/03/12 11:53:17;;;;;;;9.05;6.15;;;;;;;;;;6218831;23;20020;-86
2022/03/12 11:55:43;;;;;;;8.98;5.68;;;;;;;;;;6221448;23;20335;-86
2022/03/12 11:58:09;;;;;;;8.35;5.00;;;;;;;;;;6193245;23;20035;-87
2022/03/12 12:00:35;;;;;;;7.30;5.50;;;;;;;;;;6218353;23;20024;-86
2022/03/12 12:03:01;;;;;;;7.18;5.85;;;;;;;;;;6218668;23;20016;-88
2022/03/12 12:05:30;;;;;;;7.70;5.93;;;;;;;;;;6216286;23;20035;-86
2022/03/12 12:07:56;;;;;;;8.88;6.07;;;;;;;;;;6217635;23;20066;-86
2022/03/12 12:10:27;;;;;;;7.65;5.70;;;;;;;;;;6216862;23;20020;-86
2022/03/12 12:12:53;;;;;;;10.40;4.72;;;;;;;;;;6217534;23;20016;-87
2022/03/12 12:15:25;;;;;;;8.18;5.32;;;;;;;;;;6217021;23;20219;-86
2022/03/12 12:17:52;;;;;;;7.30;5.00;;;;;;;;;;6191556;23;20013;-86
2022/03/12 12:20:20;;;;;;;10.23;5.57;;;;;;;;;;6218436;23;20367;-86
2022/03/12 12:22:47;;;;;;;6.53;3.75;;;;;;;;;;6217185;23;20013;-85
2022/03/12 12:25:15;;;;;;;7.68;4.30;;;;;;;;;;6218314;23;20099;-86
2022/03/12 12:27:45;;;;;;;7.22;4.90;;;;;;;;;;6218126;23;20008;-86
2022/03/12 12:30:15;;;;;;;6.68;4.80;;;;;;;;;;6217615;23;20082;-86
2022/03/12 12:32:50;;;;;;;6.95;5.32;;;;;;;;;;6191518;23;20016;-86
2022/03/12 12:35:19;;;;;;;9.70;4.70;;;;;;;;;;6192094;23;20469;-87
2022/03/12 12:37:54;;;;;;;5.43;4.53;;;;;;;;;;6217940;23;20017;-94
2022/03/12 12:40:21;;;;;;;11.27;4.78;;;;;;;;;;6219377;23;20027;-93
2022/03/12 12:42:48;;;;;;;6.05;4.88;;;;;;;;;;6222024;23;20382;-95
2022/03/12 12:45:16;;;;;;;8.05;5.30;;;;;;;;;;6222573;23;20095;-95
2022/03/12 12:47:42;;;;;;;7.00;4.40;;;;;;;;;;6195484;23;20059;-96
2022/03/12 12:50:19;;;;;;;11.07;5.10;;;;;;;;;;6221107;23;20024;-87
2022/03/12 12:53:08;;;;;;;4.80;4.13;;;13.90;99.90;;;;;;6194819;23;20095;-92
2022/03/12 12:55:35;;;;;;;7.90;4.25;;;;;;;;;;6222776;23;20052;-95
2022/03/12 12:58:01;;;;;;;8.40;4.22;;;;;;;;;;6221429;23;20020;-96
2022/03/12 13:00:27;;;;;;;5.35;3.58;;;;;;;;;;6190477;23;20037;-86
2022/03/12 13:02:54;;;;;;;11.30;4.82;;;;;;;;;;6215332;23;20021;-86
2022/03/12 13:05:24;;;;;;;8.43;5.15;;;;;;;;;;6191152;23;20468;-87
2022/03/12 13:08:01;;;;;;;7.90;5.22;;;13.70;99.90;;;;;;6217108;23;20016;-86
2022/03/12 13:10:28;;;;;;;7.60;5.78;;;13.90;99.90;;;;;;6193732;23;20028;-86
2022/03/12 13:13:20;;;;;;;10.57;5.78;;;14.10;99.90;;;;;;6215991;23;20343;-87
2022/03/12 13:15:51;;;;;;;7.32;5.93;;;14.30;99.90;;;;;;6218884;23;20021;-95
2022/03/12 13:18:20;;;;;;;9.70;5.10;;;;;;;;;;6222408;23;20044;-92
2022/03/12 13:20:47;;;;;;;8.05;5.15;;;14.20;99.90;;;;;;6222098;23;20059;-92
2022/03/12 13:23:21;;;;;;;9.68;4.78;;;;;;;;;;6195973;23;20016;-92
2022/03/12 13:25:52;;;;;;;7.68;5.07;;;;;;;;;;6220757;23;20020;-96
2022/03/12 13:28:35;;;;;;;5.68;4.70;;;;;;;;;;6193502;23;20036;-96
2022/03/12 13:31:20;;;;;;;8.98;4.80;;;;;;;;;;6220925;23;20020;-95
2022/03/12 13:33:47;;;;;;;6.65;4.00;;;;;;;;;;6199859;23;20338;-94
2022/03/12 13:36:36;;;;;;;6.75;4.95;;;;;;;;;;6223693;23;20114;-94
2022/03/12 13:39:04;;;;;;;5.30;4.43;;;14.40;99.90;;;;;;6192215;23;20012;-93
2022/03/12 13:41:33;;;;;;;6.40;4.15;;;;;;;;;;6194220;23;20043;-93
2022/03/12 13:44:00;;;;;;;4.57;3.60;;;;;;;;;;6193163;23;20012;-93
2022/03/12 13:46:29;;;;;;;6.90;4.25;;;;;;;;;;6191181;23;20055;-93
2022/03/12 13:49:01;;;;;;;4.65;3.92;;;;;;;;;;6191327;23;20048;-93
2022/03/12 13:51:30;;;;;;;7.30;4.20;;;;;;;;;;6192719;23;20031;-93
2022/03/12 13:54:02;;;;;;;6.82;5.05;;;;;;;;;;6192054;23;20074;-92
2022/03/12 13:56:29;;;;;;;7.07;4.93;;;;;;;;;;6191351;23;20021;-92
2022/03/12 13:59:03;;;;;;;8.02;4.75;;;;;;;;;;6191428;23;20023;-90
2022/03/12 14:01:30;;;;;;;7.35;4.45;;;;;;;;;;6191870;23;20017;-92
2022/03/12 14:03:56;;;;;;;7.05;4.53;;;;;;;;;;6192164;23;20020;-92
2022/03/12 14:06:32;;;;;;;8.50;4.60;;;;;;;;;;6194074;23;20017;-92
2022/03/12 14:09:04;;;;;;;6.60;4.78;;;;;;;;;;6191978;23;20092;-94
2022/03/12 14:11:30;;;;;;;8.95;5.20;;;;;;;;;;6193670;23;20096;-94
2022/03/12 14:14:00;;;;;;;8.98;5.22;;;;;;;;;;6192964;23;20016;-91
2022/03/12 14:16:27;;;;;;;6.50;4.57;;;14.60;99.90;;;;;;6191807;23;20421;-92
2022/03/12 14:19:03;;;;;;;6.60;5.40;;;;;;;;;;6192798;23;20016;-93
2022/03/12 14:21:41;;;;;;;9.88;5.75;;;;;;;;;;6192152;23;20020;-92
2022/03/12 14:24:10;;;;;;;7.88;5.70;;;;;;;;;;6193527;23;20020;-94
2022/03/12 14:26:48;;;;;;;7.95;4.88;;;;;;;;;;6192254;23;20049;-92
2022/03/12 14:29:16;;;;;;;8.50;5.20;;;;;;;;;;6192533;23;20025;-93
2022/03/12 14:31:42;;;;;;;8.43;4.53;;;;;;;;;;6193740;23;20083;-93
2022/03/12 14:34:10;;;;;;;7.60;4.72;;;;;;;;;;6194095;23;20508;-92
2022/03/12 14:36:40;;;;;;;11.73;5.30;;;;;;;;;;6194700;23;20031;-90
2022/03/12 14:39:06;;;;;;;11.38;5.63;;;;;;;;;;6194222;23;20516;-91
2022/03/12 14:41:32;;;;;;;8.10;5.43;;;;;;;;;;6192927;23;20016;-92